Terminal Aerodrome Forecast
Issued by NWS

Current Version | Previous Version | Graphics & Text | Print | Product List | Glossary On
Versions: 1 2 3 4 5 6 7 8 9 10 11 12 13 14 15 16 17 18 19 20 21 22 23
000
FTUS41 KRNK 220127 AAA
TAFLWB
TAF AMD
KLWB 220127Z 2201/2224 29006KT P6SM -SHRA BKN012 OVC025
     FM220800 VRB03KT 6SM BR SCT007 BKN015
      TEMPO 2208/2212 2SM BR BKN002
     FM221400 30008KT P6SM SCT035
     FM221800 28010G20KT P6SM SCT040=

USA.gov is the U.S. government's official web portal to all federal, state and local government web resources and services.